sensor_id;sensor_type;location;lat;lon;timestamp;P1;durP1;ratioP1;P2;durP2;ratioP2
4375;SDS011;2202;50.866;12.750;2023-07-20T00:02:24;14.53;;;11.00;;
4375;SDS011;2202;50.866;12.750;2023-07-20T00:04:50;12.23;;;10.70;;
4375;SDS011;2202;50.866;12.750;2023-07-20T00:07:17;11.33;;;9.97;;
4375;SDS011;2202;50.866;12.750;2023-07-20T00:09:44;13.20;;;10.17;;
4375;SDS011;2202;50.866;12.750;2023-07-20T00:12:12;12.53;;;10.83;;
4375;SDS011;2202;50.866;12.750;2023-07-20T00:14:41;13.37;;;11.07;;
4375;SDS011;2202;50.866;12.750;2023-07-20T00:17:08;19.90;;;11.00;;
4375;SDS011;2202;50.866;12.750;2023-07-20T00:19:35;15.20;;;11.97;;
4375;SDS011;2202;50.866;12.750;2023-07-20T00:22:02;13.57;;;11.30;;
4375;SDS011;2202;50.866;12.750;2023-07-20T00:24:29;17.60;;;12.00;;
4375;SDS011;2202;50.866;12.750;2023-07-20T00:26:56;13.37;;;11.97;;
4375;SDS011;2202;50.866;12.750;2023-07-20T00:29:23;20.57;;;11.07;;
4375;SDS011;2202;50.866;12.750;2023-07-20T00:31:51;13.83;;;12.37;;
4375;SDS011;2202;50.866;12.750;2023-07-20T00:34:18;21.20;;;12.00;;
4375;SDS011;2202;50.866;12.750;2023-07-20T00:36:45;15.97;;;12.80;;
4375;SDS011;2202;50.866;12.750;2023-07-20T00:39:14;15.03;;;13.57;;
4375;SDS011;2202;50.866;12.750;2023-07-20T00:41:41;14.13;;;12.63;;
4375;SDS011;2202;50.866;12.750;2023-07-20T00:44:08;13.43;;;11.63;;
4375;SDS011;2202;50.866;12.750;2023-07-20T00:46:35;15.50;;;13.90;;
4375;SDS011;2202;50.866;12.750;2023-07-20T00:49:03;13.37;;;11.70;;
4375;SDS011;2202;50.866;12.750;2023-07-20T00:51:31;17.00;;;12.67;;
4375;SDS011;2202;50.866;12.750;2023-07-20T00:53:58;13.53;;;12.13;;
4375;SDS011;2202;50.866;12.750;2023-07-20T00:56:25;16.30;;;12.73;;
4375;SDS011;2202;50.866;12.750;2023-07-20T00:58:52;15.73;;;11.97;;
4375;SDS011;2202;50.866;12.750;2023-07-20T01:01:19;13.50;;;11.47;;
4375;SDS011;2202;50.866;12.750;2023-07-20T01:03:46;13.23;;;11.30;;
4375;SDS011;2202;50.866;12.750;2023-07-20T01:06:18;13.87;;;12.10;;
4375;SDS011;2202;50.866;12.750;2023-07-20T01:08:57;18.10;;;12.27;;
4375;SDS011;2202;50.866;12.750;2023-07-20T01:11:35;14.43;;;12.93;;
4375;SDS011;2202;50.866;12.750;2023-07-20T01:14:04;25.97;;;14.57;;
4375;SDS011;2202;50.866;12.750;2023-07-20T01:16:32;20.63;;;14.83;;
4375;SDS011;2202;50.866;12.750;2023-07-20T01:18:59;15.83;;;14.30;;
4375;SDS011;2202;50.866;12.750;2023-07-20T01:21:28;16.13;;;13.43;;
4375;SDS011;2202;50.866;12.750;2023-07-20T01:27:18;19.80;;;13.70;;
4375;SDS011;2202;50.866;12.750;2023-07-20T01:30:08;15.40;;;13.80;;
4375;SDS011;2202;50.866;12.750;2023-07-20T01:32:52;16.73;;;13.47;;
4375;SDS011;2202;50.866;12.750;2023-07-20T01:35:21;16.17;;;13.97;;
4375;SDS011;2202;50.866;12.750;2023-07-20T01:37:53;18.87;;;14.00;;
4375;SDS011;2202;50.866;12.750;2023-07-20T01:40:20;21.57;;;15.53;;
4375;SDS011;2202;50.866;12.750;2023-07-20T01:42:50;22.67;;;15.67;;
4375;SDS011;2202;50.866;12.750;2023-07-20T01:45:17;20.80;;;15.03;;
4375;SDS011;2202;50.866;12.750;2023-07-20T01:47:44;16.63;;;14.87;;
4375;SDS011;2202;50.866;12.750;2023-07-20T01:50:12;18.23;;;14.60;;
4375;SDS011;2202;50.866;12.750;2023-07-20T01:52:39;19.60;;;15.17;;
4375;SDS011;2202;50.866;12.750;2023-07-20T01:55:06;16.53;;;14.90;;
4375;SDS011;2202;50.866;12.750;2023-07-20T01:57:34;17.43;;;15.17;;
4375;SDS011;2202;50.866;12.750;2023-07-20T02:00:01;20.13;;;14.53;;
4375;SDS011;2202;50.866;12.750;2023-07-20T02:02:29;16.60;;;14.80;;
4375;SDS011;2202;50.866;12.750;2023-07-20T02:04:55;27.67;;;15.50;;
4375;SDS011;2202;50.866;12.750;2023-07-20T02:07:23;17.30;;;15.50;;
4375;SDS011;2202;50.866;12.750;2023-07-20T02:09:51;19.80;;;14.07;;
4375;SDS011;2202;50.866;12.750;2023-07-20T02:12:18;16.20;;;13.90;;
4375;SDS011;2202;50.866;12.750;2023-07-20T02:14:45;18.33;;;14.73;;
4375;SDS011;2202;50.866;12.750;2023-07-20T02:17:12;17.97;;;16.27;;
4375;SDS011;2202;50.866;12.750;2023-07-20T02:19:40;26.17;;;15.53;;
4375;SDS011;2202;50.866;12.750;2023-07-20T02:22:07;16.17;;;14.13;;
4375;SDS011;2202;50.866;12.750;2023-07-20T02:24:35;17.80;;;13.43;;
4375;SDS011;2202;50.866;12.750;2023-07-20T02:27:02;15.43;;;13.83;;
4375;SDS011;2202;50.866;12.750;2023-07-20T02:29:29;17.77;;;14.00;;
4375;SDS011;2202;50.866;12.750;2023-07-20T02:31:56;19.90;;;14.57;;
4375;SDS011;2202;50.866;12.750;2023-07-20T02:34:23;15.23;;;13.73;;
4375;SDS011;2202;50.866;12.750;2023-07-20T02:36:49;13.83;;;12.37;;
4375;SDS011;2202;50.866;12.750;2023-07-20T02:39:16;13.87;;;12.57;;
4375;SDS011;2202;50.866;12.750;2023-07-20T02:41:44;31.90;;;14.83;;
4375;SDS011;2202;50.866;12.750;2023-07-20T02:44:11;21.50;;;14.23;;
4375;SDS011;2202;50.866;12.750;2023-07-20T02:46:39;16.40;;;13.90;;
4375;SDS011;2202;50.866;12.750;2023-07-20T02:49:06;17.07;;;15.37;;
4375;SDS011;2202;50.866;12.750;2023-07-20T02:51:33;17.40;;;12.87;;
4375;SDS011;2202;50.866;12.750;2023-07-20T02:54:00;16.70;;;13.87;;
4375;SDS011;2202;50.866;12.750;2023-07-20T02:56:28;21.77;;;14.60;;
4375;SDS011;2202;50.866;12.750;2023-07-20T02:58:56;16.23;;;14.53;;
4375;SDS011;2202;50.866;12.750;2023-07-20T03:01:23;17.00;;;13.37;;
4375;SDS011;2202;50.866;12.750;2023-07-20T03:03:54;15.90;;;13.97;;
4375;SDS011;2202;50.866;12.750;2023-07-20T03:06:21;15.73;;;14.00;;
4375;SDS011;2202;50.866;12.750;2023-07-20T03:08:48;18.17;;;15.60;;
4375;SDS011;2202;50.866;12.750;2023-07-20T03:11:17;16.63;;;14.57;;
4375;SDS011;2202;50.866;12.750;2023-07-20T03:13:45;16.60;;;14.17;;
4375;SDS011;2202;50.866;12.750;2023-07-20T03:16:18;16.03;;;14.33;;
4375;SDS011;2202;50.866;12.750;2023-07-20T03:18:46;14.20;;;12.70;;
4375;SDS011;2202;50.866;12.750;2023-07-20T03:21:13;15.07;;;13.67;;
4375;SDS011;2202;50.866;12.750;2023-07-20T03:23:40;19.77;;;13.70;;
4375;SDS011;2202;50.866;12.750;2023-07-20T03:26:07;14.50;;;13.00;;
4375;SDS011;2202;50.866;12.750;2023-07-20T03:28:34;16.80;;;13.90;;
4375;SDS011;2202;50.866;12.750;2023-07-20T03:31:01;14.40;;;13.00;;
4375;SDS011;2202;50.866;12.750;2023-07-20T03:33:29;15.30;;;13.90;;
4375;SDS011;2202;50.866;12.750;2023-07-20T03:35:57;20.03;;;14.03;;
4375;SDS011;2202;50.866;12.750;2023-07-20T03:38:24;19.07;;;14.23;;
4375;SDS011;2202;50.866;12.750;2023-07-20T03:40:52;18.40;;;14.07;;
4375;SDS011;2202;50.866;12.750;2023-07-20T03:43:20;15.43;;;13.13;;
4375;SDS011;2202;50.866;12.750;2023-07-20T03:45:47;16.10;;;14.07;;
4375;SDS011;2202;50.866;12.750;2023-07-20T03:48:15;17.40;;;14.53;;
4375;SDS011;2202;50.866;12.750;2023-07-20T03:50:45;15.00;;;13.50;;
4375;SDS011;2202;50.866;12.750;2023-07-20T03:53:12;15.97;;;14.03;;
4375;SDS011;2202;50.866;12.750;2023-07-20T03:55:39;16.07;;;14.40;;
4375;SDS011;2202;50.866;12.750;2023-07-20T03:58:06;14.77;;;13.27;;
4375;SDS011;2202;50.866;12.750;2023-07-20T04:00:33;16.37;;;14.83;;
4375;SDS011;2202;50.866;12.750;2023-07-20T04:03:00;16.90;;;15.17;;
4375;SDS011;2202;50.866;12.750;2023-07-20T04:05:27;16.93;;;15.13;;
4375;SDS011;2202;50.866;12.750;2023-07-20T04:07:55;18.43;;;15.40;;
4375;SDS011;2202;50.866;12.750;2023-07-20T04:10:22;19.23;;;16.10;;
4375;SDS011;2202;50.866;12.750;2023-07-20T04:12:49;18.40;;;16.70;;
4375;SDS011;2202;50.866;12.750;2023-07-20T04:15:16;20.67;;;16.57;;
4375;SDS011;2202;50.866;12.750;2023-07-20T04:17:43;16.80;;;15.37;;
4375;SDS011;2202;50.866;12.750;2023-07-20T04:20:11;17.60;;;15.90;;
4375;SDS011;2202;50.866;12.750;2023-07-20T04:22:38;15.37;;;14.00;;
4375;SDS011;2202;50.866;12.750;2023-07-20T04:25:07;17.23;;;15.27;;
4375;SDS011;2202;50.866;12.750;2023-07-20T04:27:34;21.90;;;15.80;;
4375;SDS011;2202;50.866;12.750;2023-07-20T04:30:02;19.00;;;15.30;;
4375;SDS011;2202;50.866;12.750;2023-07-20T04:32:30;18.13;;;16.03;;
4375;SDS011;2202;50.866;12.750;2023-07-20T04:34:58;24.67;;;16.17;;
4375;SDS011;2202;50.866;12.750;2023-07-20T04:37:25;17.87;;;15.93;;
4375;SDS011;2202;50.866;12.750;2023-07-20T04:39:52;18.37;;;16.40;;
4375;SDS011;2202;50.866;12.750;2023-07-20T04:42:20;15.63;;;14.13;;
4375;SDS011;2202;50.866;12.750;2023-07-20T04:44:47;18.93;;;15.37;;
4375;SDS011;2202;50.866;12.750;2023-07-20T04:47:14;17.40;;;14.50;;
4375;SDS011;2202;50.866;12.750;2023-07-20T04:49:41;19.23;;;16.20;;
4375;SDS011;2202;50.866;12.750;2023-07-20T04:52:08;15.40;;;13.90;;
4375;SDS011;2202;50.866;12.750;2023-07-20T04:54:34;16.73;;;14.97;;
4375;SDS011;2202;50.866;12.750;2023-07-20T04:57:01;15.30;;;13.80;;
4375;SDS011;2202;50.866;12.750;2023-07-20T04:59:29;16.20;;;14.70;;
4375;SDS011;2202;50.866;12.750;2023-07-20T05:01:56;15.73;;;14.13;;
4375;SDS011;2202;50.866;12.750;2023-07-20T05:04:23;15.87;;;14.27;;
4375;SDS011;2202;50.866;12.750;2023-07-20T05:06:50;16.20;;;14.60;;
4375;SDS011;2202;50.866;12.750;2023-07-20T05:09:16;17.13;;;14.87;;
4375;SDS011;2202;50.866;12.750;2023-07-20T05:11:43;16.27;;;14.57;;
4375;SDS011;2202;50.866;12.750;2023-07-20T05:14:12;17.20;;;14.43;;
4375;SDS011;2202;50.866;12.750;2023-07-20T05:16:40;27.70;;;15.33;;
4375;SDS011;2202;50.866;12.750;2023-07-20T05:19:07;18.20;;;16.37;;
4375;SDS011;2202;50.866;12.750;2023-07-20T05:21:34;26.03;;;17.97;;
4375;SDS011;2202;50.866;12.750;2023-07-20T05:24:00;21.63;;;16.37;;
4375;SDS011;2202;50.866;12.750;2023-07-20T05:26:27;10.43;;;9.53;;
4375;SDS011;2202;50.866;12.750;2023-07-20T05:28:54;9.80;;;8.80;;
4375;SDS011;2202;50.866;12.750;2023-07-20T05:31:21;9.47;;;8.57;;
4375;SDS011;2202;50.866;12.750;2023-07-20T05:33:49;6.80;;;6.20;;
4375;SDS011;2202;50.866;12.750;2023-07-20T05:36:16;7.07;;;6.00;;
4375;SDS011;2202;50.866;12.750;2023-07-20T05:38:43;6.10;;;5.60;;
4375;SDS011;2202;50.866;12.750;2023-07-20T05:41:09;7.90;;;7.17;;
4375;SDS011;2202;50.866;12.750;2023-07-20T05:43:36;6.90;;;6.30;;
4375;SDS011;2202;50.866;12.750;2023-07-20T05:46:03;8.77;;;7.50;;
4375;SDS011;2202;50.866;12.750;2023-07-20T05:48:30;9.10;;;7.40;;
4375;SDS011;2202;50.866;12.750;2023-07-20T05:50:59;9.77;;;8.77;;
4375;SDS011;2202;50.866;12.750;2023-07-20T05:53:26;8.20;;;7.60;;
4375;SDS011;2202;50.866;12.750;2023-07-20T05:55:52;7.27;;;6.67;;
4375;SDS011;2202;50.866;12.750;2023-07-20T05:58:19;7.03;;;6.40;;
4375;SDS011;2202;50.866;12.750;2023-07-20T06:00:47;7.03;;;6.27;;
4375;SDS011;2202;50.866;12.750;2023-07-20T06:03:15;6.93;;;6.30;;
4375;SDS011;2202;50.866;12.750;2023-07-20T06:05:42;6.93;;;6.13;;
4375;SDS011;2202;50.866;12.750;2023-07-20T06:08:11;8.00;;;6.70;;
4375;SDS011;2202;50.866;12.750;2023-07-20T06:10:38;7.47;;;6.70;;
4375;SDS011;2202;50.866;12.750;2023-07-20T06:13:05;7.10;;;6.50;;
4375;SDS011;2202;50.866;12.750;2023-07-20T06:15:32;8.83;;;7.00;;
4375;SDS011;2202;50.866;12.750;2023-07-20T06:18:01;7.30;;;6.60;;
4375;SDS011;2202;50.866;12.750;2023-07-20T06:20:29;9.93;;;9.10;;
4375;SDS011;2202;50.866;12.750;2023-07-20T06:22:56;13.00;;;11.73;;
4375;SDS011;2202;50.866;12.750;2023-07-20T06:25:24;11.80;;;10.63;;
4375;SDS011;2202;50.866;12.750;2023-07-20T06:27:51;9.23;;;8.43;;
4375;SDS011;2202;50.866;12.750;2023-07-20T06:30:18;7.57;;;6.97;;
4375;SDS011;2202;50.866;12.750;2023-07-20T06:32:45;7.33;;;6.63;;
4375;SDS011;2202;50.866;12.750;2023-07-20T06:35:12;9.70;;;6.97;;
4375;SDS011;2202;50.866;12.750;2023-07-20T06:37:39;6.93;;;5.93;;
4375;SDS011;2202;50.866;12.750;2023-07-20T06:40:06;5.83;;;5.33;;
4375;SDS011;2202;50.866;12.750;2023-07-20T06:42:36;8.33;;;5.83;;
4375;SDS011;2202;50.866;12.750;2023-07-20T06:45:03;4.30;;;4.00;;
4375;SDS011;2202;50.866;12.750;2023-07-20T06:47:30;7.03;;;3.93;;
4375;SDS011;2202;50.866;12.750;2023-07-20T06:49:57;4.07;;;3.77;;
4375;SDS011;2202;50.866;12.750;2023-07-20T06:52:24;3.40;;;3.20;;
4375;SDS011;2202;50.866;12.750;2023-07-20T06:54:51;5.03;;;4.53;;
4375;SDS011;2202;50.866;12.750;2023-07-20T06:57:18;4.90;;;4.50;;
4375;SDS011;2202;50.866;12.750;2023-07-20T06:59:46;9.57;;;8.37;;
4375;SDS011;2202;50.866;12.750;2023-07-20T07:02:13;8.50;;;6.23;;
4375;SDS011;2202;50.866;12.750;2023-07-20T07:04:40;9.10;;;7.00;;
4375;SDS011;2202;50.866;12.750;2023-07-20T07:07:07;9.73;;;7.20;;
4375;SDS011;2202;50.866;12.750;2023-07-20T07:09:35;9.67;;;8.00;;
4375;SDS011;2202;50.866;12.750;2023-07-20T07:12:01;10.63;;;9.60;;
4375;SDS011;2202;50.866;12.750;2023-07-20T07:14:28;13.47;;;12.07;;
4375;SDS011;2202;50.866;12.750;2023-07-20T07:16:57;14.23;;;9.50;;
4375;SDS011;2202;50.866;12.750;2023-07-20T07:19:24;14.47;;;11.50;;
4375;SDS011;2202;50.866;12.750;2023-07-20T07:21:50;16.23;;;11.07;;
4375;SDS011;2202;50.866;12.750;2023-07-20T07:24:17;11.70;;;10.53;;
4375;SDS011;2202;50.866;12.750;2023-07-20T07:26:44;12.60;;;11.03;;
4375;SDS011;2202;50.866;12.750;2023-07-20T07:29:11;11.73;;;10.63;;
4375;SDS011;2202;50.866;12.750;2023-07-20T07:31:38;14.47;;;12.73;;
4375;SDS011;2202;50.866;12.750;2023-07-20T07:34:06;12.53;;;11.23;;
4375;SDS011;2202;50.866;12.750;2023-07-20T07:36:33;18.57;;;13.30;;
4375;SDS011;2202;50.866;12.750;2023-07-20T07:39:00;15.80;;;13.60;;
4375;SDS011;2202;50.866;12.750;2023-07-20T07:41:27;17.00;;;14.93;;
4375;SDS011;2202;50.866;12.750;2023-07-20T07:43:53;18.07;;;14.73;;
4375;SDS011;2202;50.866;12.750;2023-07-20T07:46:20;15.17;;;13.73;;
4375;SDS011;2202;50.866;12.750;2023-07-20T07:48:47;16.00;;;13.73;;
4375;SDS011;2202;50.866;12.750;2023-07-20T07:51:15;14.70;;;12.97;;
4375;SDS011;2202;50.866;12.750;2023-07-20T07:53:42;15.37;;;13.43;;
4375;SDS011;2202;50.866;12.750;2023-07-20T07:56:09;16.63;;;13.43;;
4375;SDS011;2202;50.866;12.750;2023-07-20T07:58:36;17.47;;;12.77;;
4375;SDS011;2202;50.866;12.750;2023-07-20T08:01:03;19.57;;;14.60;;
4375;SDS011;2202;50.866;12.750;2023-07-20T08:03:30;19.03;;;12.93;;
4375;SDS011;2202;50.866;12.750;2023-07-20T08:05:57;19.60;;;14.17;;
4375;SDS011;2202;50.866;12.750;2023-07-20T08:08:26;15.80;;;13.93;;
4375;SDS011;2202;50.866;12.750;2023-07-20T08:10:53;16.70;;;14.90;;
4375;SDS011;2202;50.866;12.750;2023-07-20T08:13:21;16.53;;;14.47;;
4375;SDS011;2202;50.866;12.750;2023-07-20T08:15:49;18.83;;;14.63;;
4375;SDS011;2202;50.866;12.750;2023-07-20T08:18:16;17.93;;;14.53;;
4375;SDS011;2202;50.866;12.750;2023-07-20T08:20:43;16.43;;;14.57;;
4375;SDS011;2202;50.866;12.750;2023-07-20T08:23:10;16.67;;;14.30;;
4375;SDS011;2202;50.866;12.750;2023-07-20T08:25:38;18.90;;;14.93;;
4375;SDS011;2202;50.866;12.750;2023-07-20T08:28:08;16.70;;;13.30;;
4375;SDS011;2202;50.866;12.750;2023-07-20T08:30:39;18.40;;;13.40;;
4375;SDS011;2202;50.866;12.750;2023-07-20T08:33:07;16.07;;;10.73;;
4375;SDS011;2202;50.866;12.750;2023-07-20T08:35:34;14.17;;;10.50;;
4375;SDS011;2202;50.866;12.750;2023-07-20T08:38:01;17.17;;;10.37;;
4375;SDS011;2202;50.866;12.750;2023-07-20T08:40:29;11.90;;;9.70;;
4375;SDS011;2202;50.866;12.750;2023-07-20T08:42:57;12.20;;;9.93;;
4375;SDS011;2202;50.866;12.750;2023-07-20T08:45:25;14.00;;;10.33;;
4375;SDS011;2202;50.866;12.750;2023-07-20T08:47:54;13.03;;;9.80;;
4375;SDS011;2202;50.866;12.750;2023-07-20T08:50:22;12.47;;;9.60;;
4375;SDS011;2202;50.866;12.750;2023-07-20T08:52:50;10.77;;;8.43;;
4375;SDS011;2202;50.866;12.750;2023-07-20T08:55:20;10.40;;;8.90;;
4375;SDS011;2202;50.866;12.750;2023-07-20T08:57:48;9.90;;;7.43;;
4375;SDS011;2202;50.866;12.750;2023-07-20T09:00:18;12.77;;;7.20;;
4375;SDS011;2202;50.866;12.750;2023-07-20T09:02:46;10.13;;;7.00;;
4375;SDS011;2202;50.866;12.750;2023-07-20T09:05:15;11.43;;;6.60;;
4375;SDS011;2202;50.866;12.750;2023-07-20T09:07:42;9.07;;;8.17;;
4375;SDS011;2202;50.866;12.750;2023-07-20T09:10:09;8.77;;;7.20;;
4375;SDS011;2202;50.866;12.750;2023-07-20T09:12:37;9.17;;;7.17;;
4375;SDS011;2202;50.866;12.750;2023-07-20T09:15:06;14.47;;;8.30;;
4375;SDS011;2202;50.866;12.750;2023-07-20T09:17:35;8.83;;;7.93;;
4375;SDS011;2202;50.866;12.750;2023-07-20T09:20:03;10.23;;;8.43;;
4375;SDS011;2202;50.866;12.750;2023-07-20T09:22:35;8.80;;;7.93;;
4375;SDS011;2202;50.866;12.750;2023-07-20T09:25:05;8.80;;;7.90;;
4375;SDS011;2202;50.866;12.750;2023-07-20T09:27:36;8.97;;;7.80;;
4375;SDS011;2202;50.866;12.750;2023-07-20T09:30:04;9.00;;;6.53;;
4375;SDS011;2202;50.866;12.750;2023-07-20T09:32:34;8.40;;;7.20;;
4375;SDS011;2202;50.866;12.750;2023-07-20T09:35:07;7.27;;;6.27;;
4375;SDS011;2202;50.866;12.750;2023-07-20T09:37:39;8.40;;;5.70;;
4375;SDS011;2202;50.866;12.750;2023-07-20T09:40:06;6.93;;;5.73;;
4375;SDS011;2202;50.866;12.750;2023-07-20T09:42:35;7.03;;;5.90;;
4375;SDS011;2202;50.866;12.750;2023-07-20T09:45:03;8.20;;;6.60;;
4375;SDS011;2202;50.866;12.750;2023-07-20T09:47:34;9.17;;;6.33;;
4375;SDS011;2202;50.866;12.750;2023-07-20T09:50:05;7.13;;;6.43;;
4375;SDS011;2202;50.866;12.750;2023-07-20T09:52:35;10.20;;;9.20;;
4375;SDS011;2202;50.866;12.750;2023-07-20T09:55:06;5.23;;;4.77;;
4375;SDS011;2202;50.866;12.750;2023-07-20T09:57:34;5.77;;;4.97;;
4375;SDS011;2202;50.866;12.750;2023-07-20T10:00:02;7.10;;;5.13;;
4375;SDS011;2202;50.866;12.750;2023-07-20T10:02:34;6.67;;;5.67;;
4375;SDS011;2202;50.866;12.750;2023-07-20T10:05:09;6.07;;;5.17;;
4375;SDS011;2202;50.866;12.750;2023-07-20T10:07:40;12.63;;;7.03;;
4375;SDS011;2202;50.866;12.750;2023-07-20T10:10:10;5.93;;;5.40;;
4375;SDS011;2202;50.866;12.750;2023-07-20T10:12:37;6.17;;;5.57;;
4375;SDS011;2202;50.866;12.750;2023-07-20T10:15:09;6.67;;;5.97;;
4375;SDS011;2202;50.866;12.750;2023-07-20T10:20:27;8.50;;;6.10;;
4375;SDS011;2202;50.866;12.750;2023-07-20T10:22:54;6.67;;;5.93;;
4375;SDS011;2202;50.866;12.750;2023-07-20T10:25:23;7.00;;;5.90;;
4375;SDS011;2202;50.866;12.750;2023-07-20T10:27:50;8.40;;;7.23;;
4375;SDS011;2202;50.866;12.750;2023-07-20T10:30:18;7.13;;;6.43;;
4375;SDS011;2202;50.866;12.750;2023-07-20T10:32:45;10.90;;;6.90;;
4375;SDS011;2202;50.866;12.750;2023-07-20T10:35:14;6.67;;;6.07;;
4375;SDS011;2202;50.866;12.750;2023-07-20T10:37:55;7.47;;;6.00;;
4375;SDS011;2202;50.866;12.750;2023-07-20T10:40:31;7.40;;;6.40;;
4375;SDS011;2202;50.866;12.750;2023-07-20T10:43:00;6.67;;;6.07;;
4375;SDS011;2202;50.866;12.750;2023-07-20T10:45:35;6.50;;;5.70;;
4375;SDS011;2202;50.866;12.750;2023-07-20T10:48:13;5.30;;;4.80;;
4375;SDS011;2202;50.866;12.750;2023-07-20T10:50:41;7.70;;;6.20;;
4375;SDS011;2202;50.866;12.750;2023-07-20T10:53:13;6.70;;;6.10;;
4375;SDS011;2202;50.866;12.750;2023-07-20T10:55:42;6.40;;;5.80;;
4375;SDS011;2202;50.866;12.750;2023-07-20T10:58:11;5.50;;;5.00;;
4375;SDS011;2202;50.866;12.750;2023-07-20T11:03:28;7.20;;;5.30;;
4375;SDS011;2202;50.866;12.750;2023-07-20T11:05:56;5.67;;;4.30;;
4375;SDS011;2202;50.866;12.750;2023-07-20T11:08:40;5.70;;;4.30;;
4375;SDS011;2202;50.866;12.750;2023-07-20T11:11:24;5.10;;;4.70;;
4375;SDS011;2202;50.866;12.750;2023-07-20T11:13:55;5.60;;;4.57;;
4375;SDS011;2202;50.866;12.750;2023-07-20T11:16:33;5.87;;;4.50;;
4375;SDS011;2202;50.866;12.750;2023-07-20T11:19:01;5.07;;;4.57;;
4375;SDS011;2202;50.866;12.750;2023-07-20T11:21:28;5.67;;;4.37;;
4375;SDS011;2202;50.866;12.750;2023-07-20T11:23:57;5.07;;;4.50;;
4375;SDS011;2202;50.866;12.750;2023-07-20T11:26:24;4.60;;;4.20;;
4375;SDS011;2202;50.866;12.750;2023-07-20T11:28:51;6.50;;;5.30;;
4375;SDS011;2202;50.866;12.750;2023-07-20T11:31:18;5.07;;;4.50;;
4375;SDS011;2202;50.866;12.750;2023-07-20T11:33:45;4.90;;;4.50;;
4375;SDS011;2202;50.866;12.750;2023-07-20T11:36:12;6.87;;;4.33;;
4375;SDS011;2202;50.866;12.750;2023-07-20T11:38:40;4.57;;;4.27;;
4375;SDS011;2202;50.866;12.750;2023-07-20T11:41:10;3.30;;;3.10;;
4375;SDS011;2202;50.866;12.750;2023-07-20T11:43:37;3.00;;;2.70;;
4375;SDS011;2202;50.866;12.750;2023-07-20T11:46:05;4.27;;;1.60;;
4375;SDS011;2202;50.866;12.750;2023-07-20T11:48:32;2.63;;;2.43;;
4375;SDS011;2202;50.866;12.750;2023-07-20T11:50:59;2.47;;;2.03;;
4375;SDS011;2202;50.866;12.750;2023-07-20T11:53:26;3.37;;;2.80;;
4375;SDS011;2202;50.866;12.750;2023-07-20T11:55:53;5.87;;;2.77;;
4375;SDS011;2202;50.866;12.750;2023-07-20T11:58:21;6.70;;;4.37;;
4375;SDS011;2202;50.866;12.750;2023-07-20T12:00:48;6.43;;;4.10;;
4375;SDS011;2202;50.866;12.750;2023-07-20T12:03:15;6.10;;;4.27;;
4375;SDS011;2202;50.866;12.750;2023-07-20T12:05:42;7.90;;;4.93;;
4375;SDS011;2202;50.866;12.750;2023-07-20T12:08:09;8.63;;;4.63;;
4375;SDS011;2202;50.866;12.750;2023-07-20T12:10:38;7.50;;;5.17;;
4375;SDS011;2202;50.866;12.750;2023-07-20T12:13:09;8.97;;;5.20;;
4375;SDS011;2202;50.866;12.750;2023-07-20T12:15:38;7.40;;;5.00;;
4375;SDS011;2202;50.866;12.750;2023-07-20T12:18:04;9.40;;;5.30;;
4375;SDS011;2202;50.866;12.750;2023-07-20T12:20:32;8.30;;;5.83;;
4375;SDS011;2202;50.866;12.750;2023-07-20T12:23:01;8.87;;;6.30;;
4375;SDS011;2202;50.866;12.750;2023-07-20T12:25:33;9.90;;;6.17;;
4375;SDS011;2202;50.866;12.750;2023-07-20T12:28:04;11.20;;;7.00;;
4375;SDS011;2202;50.866;12.750;2023-07-20T12:30:31;9.00;;;6.10;;
4375;SDS011;2202;50.866;12.750;2023-07-20T12:32:59;10.20;;;6.70;;
4375;SDS011;2202;50.866;12.750;2023-07-20T12:35:26;7.50;;;4.63;;
4375;SDS011;2202;50.866;12.750;2023-07-20T12:37:53;8.00;;;5.17;;
4375;SDS011;2202;50.866;12.750;2023-07-20T12:40:20;6.63;;;4.77;;
4375;SDS011;2202;50.866;12.750;2023-07-20T12:42:47;7.30;;;4.57;;
4375;SDS011;2202;50.866;12.750;2023-07-20T12:45:14;5.20;;;4.13;;
4375;SDS011;2202;50.866;12.750;2023-07-20T12:47:41;5.77;;;4.60;;
4375;SDS011;2202;50.866;12.750;2023-07-20T12:50:10;6.40;;;4.40;;
4375;SDS011;2202;50.866;12.750;2023-07-20T12:52:37;7.13;;;4.00;;
4375;SDS011;2202;50.866;12.750;2023-07-20T12:55:05;6.20;;;4.03;;
4375;SDS011;2202;50.866;12.750;2023-07-20T12:57:34;4.30;;;3.90;;
4375;SDS011;2202;50.866;12.750;2023-07-20T13:00:01;8.30;;;4.40;;
4375;SDS011;2202;50.866;12.750;2023-07-20T13:02:29;5.87;;;4.93;;
4375;SDS011;2202;50.866;12.750;2023-07-20T13:04:57;4.17;;;3.40;;
4375;SDS011;2202;50.866;12.750;2023-07-20T13:07:30;5.63;;;4.40;;
4375;SDS011;2202;50.866;12.750;2023-07-20T13:09:58;4.60;;;4.20;;
4375;SDS011;2202;50.866;12.750;2023-07-20T13:12:25;5.60;;;4.83;;
4375;SDS011;2202;50.866;12.750;2023-07-20T13:14:52;7.90;;;6.00;;
4375;SDS011;2202;50.866;12.750;2023-07-20T13:17:20;6.10;;;5.50;;
4375;SDS011;2202;50.866;12.750;2023-07-20T13:19:47;6.07;;;5.47;;
4375;SDS011;2202;50.866;12.750;2023-07-20T13:22:14;7.40;;;6.30;;
4375;SDS011;2202;50.866;12.750;2023-07-20T13:24:44;7.80;;;7.13;;
4375;SDS011;2202;50.866;12.750;2023-07-20T13:27:11;8.33;;;7.53;;
4375;SDS011;2202;50.866;12.750;2023-07-20T13:29:38;15.20;;;7.40;;
4375;SDS011;2202;50.866;12.750;2023-07-20T13:32:06;7.00;;;6.30;;
4375;SDS011;2202;50.866;12.750;2023-07-20T13:34:34;6.80;;;6.10;;
4375;SDS011;2202;50.866;12.750;2023-07-20T13:37:01;8.67;;;6.00;;
4375;SDS011;2202;50.866;12.750;2023-07-20T13:39:28;6.10;;;5.60;;
4375;SDS011;2202;50.866;12.750;2023-07-20T13:41:56;6.43;;;4.43;;
4375;SDS011;2202;50.866;12.750;2023-07-20T13:44:23;6.53;;;5.40;;
4375;SDS011;2202;50.866;12.750;2023-07-20T13:46:50;5.80;;;5.20;;
4375;SDS011;2202;50.866;12.750;2023-07-20T13:49:17;5.43;;;4.93;;
4375;SDS011;2202;50.866;12.750;2023-07-20T13:51:44;4.47;;;4.03;;
4375;SDS011;2202;50.866;12.750;2023-07-20T13:54:10;4.43;;;4.07;;
4375;SDS011;2202;50.866;12.750;2023-07-20T13:56:37;4.30;;;4.00;;
4375;SDS011;2202;50.866;12.750;2023-07-20T13:59:06;4.80;;;4.40;;
4375;SDS011;2202;50.866;12.750;2023-07-20T14:01:32;4.50;;;4.20;;
4375;SDS011;2202;50.866;12.750;2023-07-20T14:04:00;6.17;;;5.57;;
4375;SDS011;2202;50.866;12.750;2023-07-20T14:06:29;4.10;;;3.80;;
4375;SDS011;2202;50.866;12.750;2023-07-20T14:08:57;4.57;;;4.17;;
4375;SDS011;2202;50.866;12.750;2023-07-20T14:11:25;5.40;;;4.90;;
4375;SDS011;2202;50.866;12.750;2023-07-20T14:13:52;4.40;;;3.60;;
4375;SDS011;2202;50.866;12.750;2023-07-20T14:16:20;4.00;;;3.70;;
4375;SDS011;2202;50.866;12.750;2023-07-20T14:18:47;4.00;;;3.70;;
4375;SDS011;2202;50.866;12.750;2023-07-20T14:21:14;8.53;;;4.17;;
4375;SDS011;2202;50.866;12.750;2023-07-20T14:23:41;3.67;;;3.47;;
4375;SDS011;2202;50.866;12.750;2023-07-20T14:26:08;5.17;;;4.73;;
4375;SDS011;2202;50.866;12.750;2023-07-20T14:28:35;4.07;;;3.77;;
4375;SDS011;2202;50.866;12.750;2023-07-20T14:31:02;4.93;;;4.47;;
4375;SDS011;2202;50.866;12.750;2023-07-20T14:33:31;4.70;;;4.30;;
4375;SDS011;2202;50.866;12.750;2023-07-20T14:35:58;4.57;;;4.17;;
4375;SDS011;2202;50.866;12.750;2023-07-20T14:38:26;4.93;;;4.40;;
4375;SDS011;2202;50.866;12.750;2023-07-20T14:40:53;6.13;;;5.70;;
4375;SDS011;2202;50.866;12.750;2023-07-20T14:43:20;4.50;;;4.20;;
4375;SDS011;2202;50.866;12.750;2023-07-20T14:45:47;4.23;;;3.93;;
4375;SDS011;2202;50.866;12.750;2023-07-20T14:48:13;4.40;;;4.20;;
4375;SDS011;2202;50.866;12.750;2023-07-20T14:50:42;6.20;;;4.23;;
4375;SDS011;2202;50.866;12.750;2023-07-20T14:53:10;5.03;;;4.73;;
4375;SDS011;2202;50.866;12.750;2023-07-20T14:55:37;5.03;;;4.63;;
4375;SDS011;2202;50.866;12.750;2023-07-20T14:58:04;4.20;;;4.00;;
4375;SDS011;2202;50.866;12.750;2023-07-20T15:00:31;7.60;;;4.63;;
4375;SDS011;2202;50.866;12.750;2023-07-20T15:02:58;5.00;;;4.60;;